sensor_id;sensor_type;location;lat;lon;timestamp;P1;P2;P0
20157;PMS5003;10239;56.820;24.416;2023-08-06T00:00:41;8.20;6.60;4.00
20157;PMS5003;10239;56.820;24.416;2023-08-06T00:03:09;6.00;6.00;4.00
20157;PMS5003;10239;56.820;24.416;2023-08-06T00:05:37;4.00;4.00;3.00
20157;PMS5003;10239;56.820;24.416;2023-08-06T00:08:09;5.00;5.00;2.40
20157;PMS5003;10239;56.820;24.416;2023-08-06T00:10:37;4.60;4.60;3.00
20157;PMS5003;10239;56.820;24.416;2023-08-06T00:13:08;9.00;6.60;4.00
20157;PMS5003;10239;56.820;24.416;2023-08-06T00:15:35;4.80;4.00;2.40
20157;PMS5003;10239;56.820;24.416;2023-08-06T00:18:03;6.20;6.20;3.40
20157;PMS5003;10239;56.820;24.416;2023-08-06T00:20:31;5.80;4.20;2.60
20157;PMS5003;10239;56.820;24.416;2023-08-06T00:22:58;6.60;5.20;3.00
20157;PMS5003;10239;56.820;24.416;2023-08-06T00:25:43;4.00;4.00;2.00
20157;PMS5003;10239;56.820;24.416;2023-08-06T00:28:11;6.60;6.20;4.00
20157;PMS5003;10239;56.820;24.416;2023-08-06T00:30:38;8.00;8.00;5.00
20157;PMS5003;10239;56.820;24.416;2023-08-06T00:33:06;6.80;6.80;4.00
20157;PMS5003;10239;56.820;24.416;2023-08-06T00:35:34;10.75;7.00;4.00
20157;PMS5003;10239;56.820;24.416;2023-08-06T00:38:01;6.80;6.20;3.40
20157;PMS5003;10239;56.820;24.416;2023-08-06T00:40:29;5.80;5.00;3.00
20157;PMS5003;10239;56.820;24.416;2023-08-06T00:42:57;5.80;4.80;3.20
20157;PMS5003;10239;56.820;24.416;2023-08-06T00:45:25;4.40;4.40;3.00
20157;PMS5003;10239;56.820;24.416;2023-08-06T00:47:54;3.80;3.80;1.80
20157;PMS5003;10239;56.820;24.416;2023-08-06T00:50:23;3.00;3.00;1.80
20157;PMS5003;10239;56.820;24.416;2023-08-06T00:52:50;6.00;6.00;2.00
20157;PMS5003;10239;56.820;24.416;2023-08-06T00:55:19;6.60;6.60;4.60
20157;PMS5003;10239;56.820;24.416;2023-08-06T00:57:47;6.40;5.60;2.60
20157;PMS5003;10239;56.820;24.416;2023-08-06T01:00:15;8.00;7.00;3.00
20157;PMS5003;10239;56.820;24.416;2023-08-06T01:02:42;4.60;3.80;2.80
20157;PMS5003;10239;56.820;24.416;2023-08-06T01:05:10;6.60;4.60;3.40
20157;PMS5003;10239;56.820;24.416;2023-08-06T01:10:38;6.75;6.00;3.00
20157;PMS5003;10239;56.820;24.416;2023-08-06T01:15:54;8.50;6.00;3.75
20157;PMS5003;10239;56.820;24.416;2023-08-06T01:18:26;7.00;5.50;3.00
20157;PMS5003;10239;56.820;24.416;2023-08-06T01:20:54;6.50;5.00;2.00
20157;PMS5003;10239;56.820;24.416;2023-08-06T01:23:22;4.20;4.20;2.80
20157;PMS5003;10239;56.820;24.416;2023-08-06T01:28:41;7.50;5.75;4.00
20157;PMS5003;10239;56.820;24.416;2023-08-06T01:31:21;6.25;6.25;4.00
20157;PMS5003;10239;56.820;24.416;2023-08-06T01:33:51;7.00;7.00;4.00
20157;PMS5003;10239;56.820;24.416;2023-08-06T01:36:20;6.50;5.75;3.50
20157;PMS5003;10239;56.820;24.416;2023-08-06T01:38:51;6.80;5.00;3.60
20157;PMS5003;10239;56.820;24.416;2023-08-06T01:41:19;6.00;5.50;3.25
20157;PMS5003;10239;56.820;24.416;2023-08-06T01:43:47;6.75;6.75;3.00
20157;PMS5003;10239;56.820;24.416;2023-08-06T01:46:15;5.80;5.80;4.00
20157;PMS5003;10239;56.820;24.416;2023-08-06T01:48:42;6.40;6.00;3.00
20157;PMS5003;10239;56.820;24.416;2023-08-06T01:51:10;6.40;5.00;3.60
20157;PMS5003;10239;56.820;24.416;2023-08-06T01:53:37;3.40;3.40;2.00
20157;PMS5003;10239;56.820;24.416;2023-08-06T01:56:05;6.80;5.80;3.20
20157;PMS5003;10239;56.820;24.416;2023-08-06T01:58:34;3.20;3.20;2.00
20157;PMS5003;10239;56.820;24.416;2023-08-06T02:01:02;5.00;5.00;3.00
20157;PMS5003;10239;56.820;24.416;2023-08-06T02:03:29;9.40;7.00;3.80
20157;PMS5003;10239;56.820;24.416;2023-08-06T02:05:57;6.00;6.00;4.20
20157;PMS5003;10239;56.820;24.416;2023-08-06T02:08:25;6.40;6.40;4.00
20157;PMS5003;10239;56.820;24.416;2023-08-06T02:10:54;4.80;4.80;3.00
20157;PMS5003;10239;56.820;24.416;2023-08-06T02:13:22;6.00;6.00;2.40
20157;PMS5003;10239;56.820;24.416;2023-08-06T02:15:49;3.60;3.60;2.00
20157;PMS5003;10239;56.820;24.416;2023-08-06T02:18:17;6.00;6.00;4.00
20157;PMS5003;10239;56.820;24.416;2023-08-06T02:20:54;6.20;6.00;3.80
20157;PMS5003;10239;56.820;24.416;2023-08-06T02:23:24;8.00;6.00;3.00
20157;PMS5003;10239;56.820;24.416;2023-08-06T02:25:59;4.80;4.80;2.00
20157;PMS5003;10239;56.820;24.416;2023-08-06T02:28:28;4.80;4.80;3.00
20157;PMS5003;10239;56.820;24.416;2023-08-06T02:30:56;8.00;5.00;3.00
20157;PMS5003;10239;56.820;24.416;2023-08-06T02:33:24;6.00;4.80;2.80
20157;PMS5003;10239;56.820;24.416;2023-08-06T02:36:00;5.20;5.20;3.00
20157;PMS5003;10239;56.820;24.416;2023-08-06T02:38:28;6.20;5.00;3.80
20157;PMS5003;10239;56.820;24.416;2023-08-06T02:40:56;6.00;6.00;3.20
20157;PMS5003;10239;56.820;24.416;2023-08-06T02:43:24;5.20;4.80;3.00
20157;PMS5003;10239;56.820;24.416;2023-08-06T02:45:51;5.40;4.00;2.00
20157;PMS5003;10239;56.820;24.416;2023-08-06T02:48:19;4.00;4.00;2.20
20157;PMS5003;10239;56.820;24.416;2023-08-06T02:50:47;4.80;4.00;2.00
20157;PMS5003;10239;56.820;24.416;2023-08-06T02:53:14;5.00;5.00;2.40
20157;PMS5003;10239;56.820;24.416;2023-08-06T02:55:47;8.00;8.00;4.00
20157;PMS5003;10239;56.820;24.416;2023-08-06T02:58:18;10.80;7.80;4.00
20157;PMS5003;10239;56.820;24.416;2023-08-06T03:01:05;5.40;5.40;2.80
20157;PMS5003;10239;56.820;24.416;2023-08-06T03:03:52;6.00;6.00;3.80
20157;PMS5003;10239;56.820;24.416;2023-08-06T03:06:26;7.50;5.25;3.25
20157;PMS5003;10239;56.820;24.416;2023-08-06T03:08:56;6.00;5.00;3.00
20157;PMS5003;10239;56.820;24.416;2023-08-06T03:11:25;6.00;6.00;3.00
20157;PMS5003;10239;56.820;24.416;2023-08-06T03:13:57;7.20;5.60;3.80
20157;PMS5003;10239;56.820;24.416;2023-08-06T03:16:25;6.20;6.20;4.00
20157;PMS5003;10239;56.820;24.416;2023-08-06T03:18:53;6.80;5.60;3.00
20157;PMS5003;10239;56.820;24.416;2023-08-06T03:21:21;5.40;5.40;2.60
20157;PMS5003;10239;56.820;24.416;2023-08-06T03:23:49;5.40;5.00;3.00
20157;PMS5003;10239;56.820;24.416;2023-08-06T03:26:20;6.80;6.20;4.20
20157;PMS5003;10239;56.820;24.416;2023-08-06T03:28:48;5.60;4.40;3.00
20157;PMS5003;10239;56.820;24.416;2023-08-06T03:31:16;6.00;6.00;4.00
20157;PMS5003;10239;56.820;24.416;2023-08-06T03:33:44;7.00;7.00;4.40
20157;PMS5003;10239;56.820;24.416;2023-08-06T03:36:15;8.00;7.60;4.00
20157;PMS5003;10239;56.820;24.416;2023-08-06T03:38:43;9.40;7.60;4.20
20157;PMS5003;10239;56.820;24.416;2023-08-06T03:41:13;7.40;7.40;5.00
20157;PMS5003;10239;56.820;24.416;2023-08-06T03:43:42;8.00;6.40;4.00
20157;PMS5003;10239;56.820;24.416;2023-08-06T03:46:15;8.40;7.40;5.00
20157;PMS5003;10239;56.820;24.416;2023-08-06T03:48:42;8.20;7.00;4.20
20157;PMS5003;10239;56.820;24.416;2023-08-06T03:51:11;6.20;6.20;4.00
20157;PMS5003;10239;56.820;24.416;2023-08-06T03:53:42;4.80;3.80;2.00
20157;PMS5003;10239;56.820;24.416;2023-08-06T03:56:09;9.60;6.60;5.20
20157;PMS5003;10239;56.820;24.416;2023-08-06T03:58:38;4.00;4.00;1.60
20157;PMS5003;10239;56.820;24.416;2023-08-06T04:01:07;7.60;7.60;5.00
20157;PMS5003;10239;56.820;24.416;2023-08-06T04:03:43;7.80;7.80;4.20
20157;PMS5003;10239;56.820;24.416;2023-08-06T04:06:12;9.80;8.80;4.00
20157;PMS5003;10239;56.820;24.416;2023-08-06T04:08:39;8.80;8.80;5.80
20157;PMS5003;10239;56.820;24.416;2023-08-06T04:11:07;5.40;5.40;3.20
20157;PMS5003;10239;56.820;24.416;2023-08-06T04:13:35;7.80;7.80;4.00
20157;PMS5003;10239;56.820;24.416;2023-08-06T04:16:02;7.40;7.40;4.60
20157;PMS5003;10239;56.820;24.416;2023-08-06T04:18:31;7.00;7.00;4.60
20157;PMS5003;10239;56.820;24.416;2023-08-06T04:20:59;6.80;6.80;5.00
20157;PMS5003;10239;56.820;24.416;2023-08-06T04:23:28;8.60;8.60;4.40
20157;PMS5003;10239;56.820;24.416;2023-08-06T04:26:00;9.40;8.20;4.00
20157;PMS5003;10239;56.820;24.416;2023-08-06T04:28:31;6.80;5.60;4.00
20157;PMS5003;10239;56.820;24.416;2023-08-06T04:30:59;7.80;7.60;4.80
20157;PMS5003;10239;56.820;24.416;2023-08-06T04:33:29;7.40;7.00;4.00
20157;PMS5003;10239;56.820;24.416;2023-08-06T04:36:01;5.60;4.40;1.20
20157;PMS5003;10239;56.820;24.416;2023-08-06T04:38:28;4.00;4.00;2.60
20157;PMS5003;10239;56.820;24.416;2023-08-06T04:40:57;6.60;6.60;4.60
20157;PMS5003;10239;56.820;24.416;2023-08-06T04:43:25;8.20;8.20;4.20
20157;PMS5003;10239;56.820;24.416;2023-08-06T04:45:53;7.00;6.00;3.40
20157;PMS5003;10239;56.820;24.416;2023-08-06T04:48:22;10.00;10.00;5.00
20157;PMS5003;10239;56.820;24.416;2023-08-06T04:50:50;6.20;6.20;3.40
20157;PMS5003;10239;56.820;24.416;2023-08-06T04:53:17;8.00;8.00;4.20
20157;PMS5003;10239;56.820;24.416;2023-08-06T04:55:45;10.20;6.80;5.60
20157;PMS5003;10239;56.820;24.416;2023-08-06T04:58:13;8.40;8.40;6.20
20157;PMS5003;10239;56.820;24.416;2023-08-06T05:00:40;7.60;7.60;3.20
20157;PMS5003;10239;56.820;24.416;2023-08-06T05:03:09;8.20;8.00;4.00
20157;PMS5003;10239;56.820;24.416;2023-08-06T05:05:36;6.80;5.40;3.80
20157;PMS5003;10239;56.820;24.416;2023-08-06T05:08:06;9.60;7.40;4.80
20157;PMS5003;10239;56.820;24.416;2023-08-06T05:10:34;6.40;6.20;4.40
20157;PMS5003;10239;56.820;24.416;2023-08-06T05:13:01;8.80;7.60;3.80
20157;PMS5003;10239;56.820;24.416;2023-08-06T05:15:29;9.00;7.80;4.00
20157;PMS5003;10239;56.820;24.416;2023-08-06T05:17:57;11.20;7.80;5.00
20157;PMS5003;10239;56.820;24.416;2023-08-06T05:20:25;7.80;7.80;6.20
20157;PMS5003;10239;56.820;24.416;2023-08-06T05:22:52;7.00;7.00;3.60
20157;PMS5003;10239;56.820;24.416;2023-08-06T05:25:23;6.80;6.80;5.40
20157;PMS5003;10239;56.820;24.416;2023-08-06T05:27:50;9.20;9.20;5.40
20157;PMS5003;10239;56.820;24.416;2023-08-06T05:30:18;7.20;7.20;4.00
20157;PMS5003;10239;56.820;24.416;2023-08-06T05:32:45;8.20;8.20;5.00
20157;PMS5003;10239;56.820;24.416;2023-08-06T05:35:13;12.00;10.00;5.20
20157;PMS5003;10239;56.820;24.416;2023-08-06T05:37:41;14.60;12.00;5.20
20157;PMS5003;10239;56.820;24.416;2023-08-06T05:40:14;8.40;8.40;4.00
20157;PMS5003;10239;56.820;24.416;2023-08-06T05:42:41;5.20;5.20;2.00
20157;PMS5003;10239;56.820;24.416;2023-08-06T05:45:09;8.80;8.80;4.80
20157;PMS5003;10239;56.820;24.416;2023-08-06T05:47:37;10.20;10.20;5.60
20157;PMS5003;10239;56.820;24.416;2023-08-06T05:50:04;12.40;9.80;6.40
20157;PMS5003;10239;56.820;24.416;2023-08-06T05:52:33;7.60;7.60;5.20
20157;PMS5003;10239;56.820;24.416;2023-08-06T05:55:00;12.40;12.20;6.20
20157;PMS5003;10239;56.820;24.416;2023-08-06T05:57:28;11.00;10.20;5.40
20157;PMS5003;10239;56.820;24.416;2023-08-06T05:59:55;11.40;10.60;7.00
20157;PMS5003;10239;56.820;24.416;2023-08-06T06:02:23;7.60;7.60;3.40
20157;PMS5003;10239;56.820;24.416;2023-08-06T06:04:54;8.40;8.00;4.60
20157;PMS5003;10239;56.820;24.416;2023-08-06T06:07:21;9.00;9.00;5.80
20157;PMS5003;10239;56.820;24.416;2023-08-06T06:09:49;8.00;8.00;4.60
20157;PMS5003;10239;56.820;24.416;2023-08-06T06:12:17;14.00;10.40;7.40
20157;PMS5003;10239;56.820;24.416;2023-08-06T06:14:45;14.20;12.20;7.00
20157;PMS5003;10239;56.820;24.416;2023-08-06T06:17:12;12.20;11.60;5.80
20157;PMS5003;10239;56.820;24.416;2023-08-06T06:19:40;13.00;10.80;8.00
20157;PMS5003;10239;56.820;24.416;2023-08-06T06:22:08;11.60;10.60;6.40
20157;PMS5003;10239;56.820;24.416;2023-08-06T06:24:35;9.60;9.60;6.80
20157;PMS5003;10239;56.820;24.416;2023-08-06T06:27:03;11.00;10.00;6.20
20157;PMS5003;10239;56.820;24.416;2023-08-06T06:29:31;11.20;10.00;5.60
20157;PMS5003;10239;56.820;24.416;2023-08-06T06:31:59;9.60;9.20;6.60
20157;PMS5003;10239;56.820;24.416;2023-08-06T06:34:26;9.40;8.40;5.60
20157;PMS5003;10239;56.820;24.416;2023-08-06T06:36:54;15.00;11.20;5.20
20157;PMS5003;10239;56.820;24.416;2023-08-06T06:39:22;10.60;10.40;6.00
20157;PMS5003;10239;56.820;24.416;2023-08-06T06:41:49;13.60;12.40;8.40
20157;PMS5003;10239;56.820;24.416;2023-08-06T06:44:24;14.60;13.20;8.00
20157;PMS5003;10239;56.820;24.416;2023-08-06T06:46:51;10.80;10.40;5.00
20157;PMS5003;10239;56.820;24.416;2023-08-06T06:49:19;12.00;12.00;8.40
20157;PMS5003;10239;56.820;24.416;2023-08-06T06:51:47;12.60;10.60;7.00
20157;PMS5003;10239;56.820;24.416;2023-08-06T06:54:14;10.00;10.00;6.00
20157;PMS5003;10239;56.820;24.416;2023-08-06T06:56:42;10.20;10.20;7.00
20157;PMS5003;10239;56.820;24.416;2023-08-06T06:59:10;11.40;11.20;7.80
20157;PMS5003;10239;56.820;24.416;2023-08-06T07:01:37;11.60;11.60;8.60
20157;PMS5003;10239;56.820;24.416;2023-08-06T07:04:05;15.00;10.20;7.00
20157;PMS5003;10239;56.820;24.416;2023-08-06T07:06:33;10.80;10.20;6.20
20157;PMS5003;10239;56.820;24.416;2023-08-06T07:09:00;11.60;11.60;7.00
20157;PMS5003;10239;56.820;24.416;2023-08-06T07:11:28;14.60;14.20;8.60
20157;PMS5003;10239;56.820;24.416;2023-08-06T07:13:56;10.00;9.60;5.00
20157;PMS5003;10239;56.820;24.416;2023-08-06T07:16:27;13.00;12.00;8.20
20157;PMS5003;10239;56.820;24.416;2023-08-06T07:18:56;15.80;13.60;8.20
20157;PMS5003;10239;56.820;24.416;2023-08-06T07:21:24;12.40;10.60;7.00
20157;PMS5003;10239;56.820;24.416;2023-08-06T07:23:51;10.00;10.00;5.60
20157;PMS5003;10239;56.820;24.416;2023-08-06T07:26:19;9.00;6.80;3.40
20157;PMS5003;10239;56.820;24.416;2023-08-06T07:28:47;15.80;14.40;9.40
20157;PMS5003;10239;56.820;24.416;2023-08-06T07:31:14;15.60;14.40;8.00
20157;PMS5003;10239;56.820;24.416;2023-08-06T07:33:42;11.20;11.20;8.20
20157;PMS5003;10239;56.820;24.416;2023-08-06T07:36:13;14.80;10.60;5.00
20157;PMS5003;10239;56.820;24.416;2023-08-06T07:38:42;15.20;15.20;10.00
20157;PMS5003;10239;56.820;24.416;2023-08-06T07:41:09;13.00;11.20;7.20
20157;PMS5003;10239;56.820;24.416;2023-08-06T07:43:37;10.40;8.60;5.00
20157;PMS5003;10239;56.820;24.416;2023-08-06T07:46:05;15.60;14.40;10.40
20157;PMS5003;10239;56.820;24.416;2023-08-06T07:48:33;15.20;14.80;10.20
20157;PMS5003;10239;56.820;24.416;2023-08-06T07:51:00;11.80;11.80;7.60
20157;PMS5003;10239;56.820;24.416;2023-08-06T07:53:28;16.60;15.60;9.20
20157;PMS5003;10239;56.820;24.416;2023-08-06T07:55:59;18.40;13.40;7.40
20157;PMS5003;10239;56.820;24.416;2023-08-06T07:58:29;20.20;16.80;10.00
20157;PMS5003;10239;56.820;24.416;2023-08-06T08:00:56;9.20;9.00;6.00
20157;PMS5003;10239;56.820;24.416;2023-08-06T08:03:24;14.20;12.40;8.00
20157;PMS5003;10239;56.820;24.416;2023-08-06T08:05:54;13.80;13.80;8.40
20157;PMS5003;10239;56.820;24.416;2023-08-06T08:08:25;15.80;13.20;9.00
20157;PMS5003;10239;56.820;24.416;2023-08-06T08:10:53;13.60;12.80;10.00
20157;PMS5003;10239;56.820;24.416;2023-08-06T08:13:22;14.20;12.80;8.40
20157;PMS5003;10239;56.820;24.416;2023-08-06T08:15:55;11.80;10.60;8.00
20157;PMS5003;10239;56.820;24.416;2023-08-06T08:18:27;14.20;12.00;8.60
20157;PMS5003;10239;56.820;24.416;2023-08-06T08:20:55;14.60;12.80;10.00
20157;PMS5003;10239;56.820;24.416;2023-08-06T08:23:22;12.80;10.00;6.00
20157;PMS5003;10239;56.820;24.416;2023-08-06T08:25:50;14.40;12.00;8.80
20157;PMS5003;10239;56.820;24.416;2023-08-06T08:28:18;15.40;15.20;10.20
20157;PMS5003;10239;56.820;24.416;2023-08-06T08:30:46;15.60;13.40;9.80
20157;PMS5003;10239;56.820;24.416;2023-08-06T08:33:14;13.60;13.60;10.60
20157;PMS5003;10239;56.820;24.416;2023-08-06T08:35:41;13.20;13.20;9.00
20157;PMS5003;10239;56.820;24.416;2023-08-06T08:38:09;18.00;15.00;10.20
20157;PMS5003;10239;56.820;24.416;2023-08-06T08:40:38;17.60;15.20;10.80
20157;PMS5003;10239;56.820;24.416;2023-08-06T08:43:19;11.40;11.40;7.60
20157;PMS5003;10239;56.820;24.416;2023-08-06T08:45:50;14.20;14.20;8.40
20157;PMS5003;10239;56.820;24.416;2023-08-06T08:48:19;15.00;15.00;11.60
20157;PMS5003;10239;56.820;24.416;2023-08-06T08:50:47;17.80;17.80;10.00
20157;PMS5003;10239;56.820;24.416;2023-08-06T08:53:17;19.20;18.40;12.40
20157;PMS5003;10239;56.820;24.416;2023-08-06T08:55:46;12.60;11.00;10.00
20157;PMS5003;10239;56.820;24.416;2023-08-06T08:58:20;16.80;14.80;10.00
20157;PMS5003;10239;56.820;24.416;2023-08-06T09:00:48;13.20;13.20;8.40
20157;PMS5003;10239;56.820;24.416;2023-08-06T09:03:17;14.40;14.40;10.20
20157;PMS5003;10239;56.820;24.416;2023-08-06T09:05:45;15.20;14.00;8.60
20157;PMS5003;10239;56.820;24.416;2023-08-06T09:08:17;17.40;14.80;11.00
20157;PMS5003;10239;56.820;24.416;2023-08-06T09:10:48;12.40;12.40;7.80
20157;PMS5003;10239;56.820;24.416;2023-08-06T09:13:16;13.00;13.00;9.20
20157;PMS5003;10239;56.820;24.416;2023-08-06T09:15:44;17.00;17.00;11.20
20157;PMS5003;10239;56.820;24.416;2023-08-06T09:18:12;14.80;14.80;10.00
20157;PMS5003;10239;56.820;24.416;2023-08-06T09:20:40;14.40;13.20;11.00
20157;PMS5003;10239;56.820;24.416;2023-08-06T09:23:08;13.00;13.00;9.20
20157;PMS5003;10239;56.820;24.416;2023-08-06T09:25:38;17.40;16.40;11.00
20157;PMS5003;10239;56.820;24.416;2023-08-06T09:28:07;15.60;12.80;10.60
20157;PMS5003;10239;56.820;24.416;2023-08-06T09:30:38;13.20;13.20;9.00
20157;PMS5003;10239;56.820;24.416;2023-08-06T09:33:09;17.40;16.60;10.00
20157;PMS5003;10239;56.820;24.416;2023-08-06T09:35:42;17.20;15.40;10.40
20157;PMS5003;10239;56.820;24.416;2023-08-06T09:38:10;16.20;14.60;10.40
20157;PMS5003;10239;56.820;24.416;2023-08-06T09:40:38;15.40;15.40;10.80
20157;PMS5003;10239;56.820;24.416;2023-08-06T09:43:07;11.40;9.20;7.40
20157;PMS5003;10239;56.820;24.416;2023-08-06T09:45:36;16.20;16.20;10.40
20157;PMS5003;10239;56.820;24.416;2023-08-06T09:48:05;17.80;16.00;9.60
20157;PMS5003;10239;56.820;24.416;2023-08-06T09:50:35;16.80;15.00;11.00
20157;PMS5003;10239;56.820;24.416;2023-08-06T09:53:05;19.60;18.20;12.20
20157;PMS5003;10239;56.820;24.416;2023-08-06T09:55:35;16.00;16.00;12.00
20157;PMS5003;10239;56.820;24.416;2023-08-06T09:58:03;15.00;13.60;8.20
20157;PMS5003;10239;56.820;24.416;2023-08-06T10:00:33;16.00;12.80;8.80
20157;PMS5003;10239;56.820;24.416;2023-08-06T10:03:06;19.80;17.60;11.00
20157;PMS5003;10239;56.820;24.416;2023-08-06T10:05:35;15.40;15.40;11.60
20157;PMS5003;10239;56.820;24.416;2023-08-06T10:08:03;15.60;15.60;11.00
20157;PMS5003;10239;56.820;24.416;2023-08-06T10:10:33;18.80;16.40;8.80
20157;PMS5003;10239;56.820;24.416;2023-08-06T10:13:02;17.60;17.20;10.40
20157;PMS5003;10239;56.820;24.416;2023-08-06T10:15:32;14.00;14.00;10.60
20157;PMS5003;10239;56.820;24.416;2023-08-06T10:18:00;20.40;20.00;11.80
20157;PMS5003;10239;56.820;24.416;2023-08-06T10:20:33;18.00;15.00;9.20
20157;PMS5003;10239;56.820;24.416;2023-08-06T10:25:33;16.60;16.60;11.20
20157;PMS5003;10239;56.820;24.416;2023-08-06T10:28:08;16.00;14.00;9.00
20157;PMS5003;10239;56.820;24.416;2023-08-06T10:30:41;14.00;13.20;10.20
20157;PMS5003;10239;56.820;24.416;2023-08-06T10:33:11;20.00;19.80;13.00
20157;PMS5003;10239;56.820;24.416;2023-08-06T10:35:42;20.00;15.80;9.40
20157;PMS5003;10239;56.820;24.416;2023-08-06T10:38:18;15.40;15.40;10.20
20157;PMS5003;10239;56.820;24.416;2023-08-06T10:43:29;14.00;13.00;8.20
20157;PMS5003;10239;56.820;24.416;2023-08-06T10:45:58;19.80;18.00;11.00
20157;PMS5003;10239;56.820;24.416;2023-08-06T10:48:35;16.20;15.60;9.20
20157;PMS5003;10239;56.820;24.416;2023-08-06T10:51:10;14.60;12.20;9.00
20157;PMS5003;10239;56.820;24.416;2023-08-06T10:53:46;18.40;16.80;10.20
20157;PMS5003;10239;56.820;24.416;2023-08-06T10:56:18;17.80;16.60;11.60
20157;PMS5003;10239;56.820;24.416;2023-08-06T10:58:51;18.40;18.00;10.20
20157;PMS5003;10239;56.820;24.416;2023-08-06T11:01:21;15.20;15.20;10.40
20157;PMS5003;10239;56.820;24.416;2023-08-06T11:03:50;17.00;14.20;11.40
20157;PMS5003;10239;56.820;24.416;2023-08-06T11:06:20;17.40;14.40;8.40
20157;PMS5003;10239;56.820;24.416;2023-08-06T11:08:50;14.60;14.60;12.00
20157;PMS5003;10239;56.820;24.416;2023-08-06T11:11:20;18.00;15.40;9.20
20157;PMS5003;10239;56.820;24.416;2023-08-06T11:13:50;19.00;16.00;11.60
20157;PMS5003;10239;56.820;24.416;2023-08-06T11:16:19;15.40;15.40;12.00
20157;PMS5003;10239;56.820;24.416;2023-08-06T11:18:50;18.20;16.80;12.40
20157;PMS5003;10239;56.820;24.416;2023-08-06T11:21:20;19.80;17.00;11.40
20157;PMS5003;10239;56.820;24.416;2023-08-06T11:23:48;16.00;15.20;9.80
20157;PMS5003;10239;56.820;24.416;2023-08-06T11:26:19;19.40;18.60;12.00
20157;PMS5003;10239;56.820;24.416;2023-08-06T11:28:47;18.60;16.60;12.20
20157;PMS5003;10239;56.820;24.416;2023-08-06T11:31:22;16.80;14.20;10.00
20157;PMS5003;10239;56.820;24.416;2023-08-06T11:33:51;18.20;17.40;11.80
20157;PMS5003;10239;56.820;24.416;2023-08-06T11:36:32;20.20;18.00;12.00
20157;PMS5003;10239;56.820;24.416;2023-08-06T11:39:00;17.00;16.80;10.40
20157;PMS5003;10239;56.820;24.416;2023-08-06T11:41:29;21.40;19.20;12.00
20157;PMS5003;10239;56.820;24.416;2023-08-06T11:43:58;18.60;18.60;11.20
20157;PMS5003;10239;56.820;24.416;2023-08-06T11:46:27;20.60;15.20;9.80
20157;PMS5003;10239;56.820;24.416;2023-08-06T11:48:56;12.80;11.20;7.00
20157;PMS5003;10239;56.820;24.416;2023-08-06T11:51:25;17.40;17.20;10.60
20157;PMS5003;10239;56.820;24.416;2023-08-06T11:53:57;14.40;14.40;9.20
20157;PMS5003;10239;56.820;24.416;2023-08-06T11:56:25;16.60;16.60;11.60
20157;PMS5003;10239;56.820;24.416;2023-08-06T11:58:54;19.00;16.80;11.00
20157;PMS5003;10239;56.820;24.416;2023-08-06T12:01:22;17.20;15.80;11.00
20157;PMS5003;10239;56.820;24.416;2023-08-06T12:03:50;17.20;16.60;9.60
20157;PMS5003;10239;56.820;24.416;2023-08-06T12:06:18;17.40;17.00;10.00
20157;PMS5003;10239;56.820;24.416;2023-08-06T12:08:45;18.80;16.20;10.00
20157;PMS5003;10239;56.820;24.416;2023-08-06T12:11:13;14.80;14.80;9.00
20157;PMS5003;10239;56.820;24.416;2023-08-06T12:13:41;19.00;19.00;11.60
20157;PMS5003;10239;56.820;24.416;2023-08-06T12:16:08;15.20;15.20;8.00
20157;PMS5003;10239;56.820;24.416;2023-08-06T12:18:36;16.40;14.20;8.20
20157;PMS5003;10239;56.820;24.416;2023-08-06T12:21:03;18.20;15.00;10.40
20157;PMS5003;10239;56.820;24.416;2023-08-06T12:23:30;14.00;13.00;8.00
20157;PMS5003;10239;56.820;24.416;2023-08-06T12:25:59;17.00;14.60;7.80
20157;PMS5003;10239;56.820;24.416;2023-08-06T12:28:27;11.00;11.00;6.40
20157;PMS5003;10239;56.820;24.416;2023-08-06T12:30:54;11.40;11.40;8.40
20157;PMS5003;10239;56.820;24.416;2023-08-06T12:33:22;13.60;12.80;8.60
20157;PMS5003;10239;56.820;24.416;2023-08-06T12:35:49;18.60;17.00;11.00
20157;PMS5003;10239;56.820;24.416;2023-08-06T12:38:17;20.40;17.00;8.80
20157;PMS5003;10239;56.820;24.416;2023-08-06T12:40:44;21.40;18.60;11.00
20157;PMS5003;10239;56.820;24.416;2023-08-06T12:43:12;16.80;16.00;10.40
20157;PMS5003;10239;56.820;24.416;2023-08-06T12:45:39;15.60;15.60;12.20
20157;PMS5003;10239;56.820;24.416;2023-08-06T12:48:06;23.00;19.00;13.00
20157;PMS5003;10239;56.820;24.416;2023-08-06T12:50:34;18.00;15.00;8.40
20157;PMS5003;10239;56.820;24.416;2023-08-06T12:53:02;22.20;19.80;13.40
20157;PMS5003;10239;56.820;24.416;2023-08-06T12:55:31;12.40;11.80;9.00
20157;PMS5003;10239;56.820;24.416;2023-08-06T12:57:59;16.60;15.00;9.80
20157;PMS5003;10239;56.820;24.416;2023-08-06T13:00:26;19.40;16.60;10.60
20157;PMS5003;10239;56.820;24.416;2023-08-06T13:02:55;20.80;20.40;13.00
20157;PMS5003;10239;56.820;24.416;2023-08-06T13:05:23;23.40;18.20;10.40
20157;PMS5003;10239;56.820;24.416;2023-08-06T13:07:51;19.40;16.20;11.00
20157;PMS5003;10239;56.820;24.416;2023-08-06T13:10:18;19.80;18.20;10.40
20157;PMS5003;10239;56.820;24.416;2023-08-06T13:12:47;15.00;15.00;10.00
20157;PMS5003;10239;56.820;24.416;2023-08-06T13:15:15;17.40;16.20;11.00
20157;PMS5003;10239;56.820;24.416;2023-08-06T13:17:43;20.40;16.40;10.80
20157;PMS5003;10239;56.820;24.416;2023-08-06T13:20:12;20.60;19.20;12.40
20157;PMS5003;10239;56.820;24.416;2023-08-06T13:22:39;20.60;16.20;10.40
20157;PMS5003;10239;56.820;24.416;2023-08-06T13:25:07;16.60;16.60;9.20
20157;PMS5003;10239;56.820;24.416;2023-08-06T13:27:34;18.60;17.80;10.80
20157;PMS5003;10239;56.820;24.416;2023-08-06T13:30:02;16.60;16.40;11.60
20157;PMS5003;10239;56.820;24.416;2023-08-06T13:32:30;14.00;13.80;10.00
20157;PMS5003;10239;56.820;24.416;2023-08-06T13:34:59;19.80;18.80;11.40
20157;PMS5003;10239;56.820;24.416;2023-08-06T13:37:26;16.40;16.40;10.00
20157;PMS5003;10239;56.820;24.416;2023-08-06T13:39:54;20.60;18.00;11.00
20157;PMS5003;10239;56.820;24.416;2023-08-06T13:42:22;18.00;16.80;10.00
20157;PMS5003;10239;56.820;24.416;2023-08-06T13:44:50;18.40;18.20;11.80
20157;PMS5003;10239;56.820;24.416;2023-08-06T13:47:17;19.40;19.40;12.40
20157;PMS5003;10239;56.820;24.416;2023-08-06T13:49:45;18.00;17.40;11.40
20157;PMS5003;10239;56.820;24.416;2023-08-06T13:52:30;20.40;16.80;10.80
20157;PMS5003;10239;56.820;24.416;2023-08-06T13:54:58;18.20;15.80;8.60
20157;PMS5003;10239;56.820;24.416;2023-08-06T13:57:26;20.60;18.80;12.00
20157;PMS5003;10239;56.820;24.416;2023-08-06T13:59:53;20.60;18.80;11.40
20157;PMS5003;10239;56.820;24.416;2023-08-06T14:02:22;15.80;14.40;8.40
20157;PMS5003;10239;56.820;24.416;2023-08-06T14:04:50;18.20;17.20;9.00
20157;PMS5003;10239;56.820;24.416;2023-08-06T14:07:19;12.80;12.80;9.00
20157;PMS5003;10239;56.820;24.416;2023-08-06T14:09:47;15.00;15.00;11.00
20157;PMS5003;10239;56.820;24.416;2023-08-06T14:12:16;13.60;12.20;7.20
20157;PMS5003;10239;56.820;24.416;2023-08-06T14:14:43;19.40;18.00;10.40